EGFFLERS

Guest
Details From EGFF - Cardiff
To LERS - Reus
Flight Number -
Tags decoded
Created
Modified
Stats Distance 643 nm / 1,191 km
Max Altitude 0 ft / 0 m
Waypoints 2
Social Downloads 3
Likes 0
Share VATSIM

Download

Looking for another format? Having issues loading an existing format? Contact us
Advertisement - Login to hide

Notes

Requested: EGFF LERS

Route

EGFF LERS

ID Type Via Altitude Latitude Longitude Leg Dist Tot Dist Heading (true) Name
O EGFF APT - 0 ft / 0 m 51.39656˚ -3.34320˚ - 0 nm - Cardiff
O LERS APT - 0 ft / 0 m 41.14462˚ 1.16551˚ 643 nm 643 nm 161° / 165° Reus

Altitude Profile

Advertisement - Login to hide

Weather


0- 5 10 15 20 25 30 35+ Temperature / ° C

Clouds and Precipitation
Forecast for 2017-12-15 00:00 UTC. Updated an hour ago

Ground ~20,000 ft ~40,000 ft Winds

EGFF

Details ICAO EGFF (CWL)
Name Cardiff
Region United Kingdom
Timezone Europe/London (UTC+0.0)
Stats Elevation 220 ft / 67 m (AMSL)
Location 51.396565° -3.343202°
Runways 1
Magnetic Variation 1.578° W

METAR

EGFF 150020Z AUTO 29019KT 9999 SCT019 BKN025 06/03 Q0992

Decode

TAF

TAF EGFF 142306Z 1500/1524 28012KT 9999 SCT025 TEMPO 1500/1506 28015G25KT 6000 SHRA BKN010 PROB30 TEMPO 1500/1506 30020G35KT 2000 +SHRAGS BKN005 BKN010CB BECMG 1503/1506 34010KT PROB30 TEMPO 1506/1518 32015G25KT

Decode

Departure Runways

ID Width Length Bearing (true) Bearing (mag) Surface Threshold Offset Overrun Length
12 131 ft / 40 m 7,831 ft / 2,387 m 116.82° 118.40° Asphalt 715 ft / 218 m 0 ft / 0 m
30 131 ft / 40 m 7,831 ft / 2,387 m 296.84° 298.42° Asphalt 594 ft / 181 m 0 ft / 0 m

LERS

Details ICAO LERS (REU)
Name Reus
Region Spain
Timezone Europe/Madrid (UTC+1.0)
Stats Elevation 0 ft / 0 m (AMSL)
Location 41.144615° 1.165505°
Runways 2
Magnetic Variation 0.590° E

METAR

LERS 150030Z AUTO 31007KT CAVOK 14/08 Q1008

Decode

TAF

TAF LERS 142000Z 1421/1521 28007KT 9999 FEW030 TX16/1512Z TN06/1506Z BECMG 1509/1511 30020G30KT TEMPO 1518/1521 31030G40KT

Decode

Destination Runways

ID Width Length Bearing (true) Bearing (mag) Surface Threshold Offset Overrun Length
12 115 ft / 35 m 3,120 ft / 951 m 290.95° 290.36° Grass 0 ft / 0 m 0 ft / 0 m
25 148 ft / 45 m 8,062 ft / 2,457 m 248.91° 248.32° Asphalt 0 ft / 0 m 0 ft / 0 m
30 115 ft / 35 m 3,120 ft / 951 m 110.95° 110.36° Grass 0 ft / 0 m 0 ft / 0 m
7 148 ft / 45 m 8,062 ft / 2,457 m 68.89° 68.30° Asphalt 883 ft / 269 m 0 ft / 0 m

Approach Navaids

Runway Type Ident Frequency Range Bearing (true) Bearing (mag) Slope Elevation
25 Localiser IRS 110.10 MHz 18 nm / 33 km 248.87° 248.28° - 0 ft / 0 m (AMSL)
25 Glidescope IRS 110.10 MHz 10 nm / 19 km 248.90° 248.31° 3.00° 0 ft / 0 m (AMSL)
25 DME IRS 110.10 MHz 18 nm / 33 km - - - 257 ft / 78 m (AMSL)

Popular Alternatives